This is the latest recevied weather packets stored in our database for station/object K5RWS. If no packets are shown the sender has not sent any weather packets the latest 10 day(s).
| Time | Temp. | Humidity | Pressure | Rain* | Wind** | Luminosity | Snow |
|---|---|---|---|---|---|---|---|
| 1778036853 | 10° C | 71% | 1014.8 hPa | 0 mm | - | 0 W/m² | - |
| 1778036551 | 10° C | 71% | 1014.7 hPa | 0 mm | - | 0 W/m² | - |
| 1778036247 | 10° C | 70% | 1014.8 hPa | 0 mm | - | 0 W/m² | - |
| 1778035944 | 10.56° C | 69% | 1014.5 hPa | 0 mm | - | 0 W/m² | - |
| 1778035641 | 10.56° C | 68% | 1014.3 hPa | 0 mm | - | 0 W/m² | - |
| 1778035337 | 10.56° C | 69% | 1014.3 hPa | 0 mm | - | 0 W/m² | - |
| 1778035034 | 10.56° C | 70% | 1014.5 hPa | 0 mm | - | 0 W/m² | - |
| 1778034731 | 10.56° C | 69% | 1014.2 hPa | 0 mm | - | 0 W/m² | - |
| 1778034428 | 10.56° C | 69% | 1014.1 hPa | 0 mm | - | 0 W/m² | - |
| 1778034125 | 10.56° C | 67% | 1014 hPa | 0 mm | - | 0 W/m² | - |
| 1778033823 | 11.11° C | 65% | 1013.9 hPa | 0 mm | - | 0 W/m² | - |
| 1778033520 | 11.67° C | 62% | 1013.8 hPa | 0 mm | - | 0 W/m² | - |
| 1778033217 | 11.67° C | 61% | 1013.9 hPa | 0 mm | - | 0 W/m² | - |
| 1778032915 | 12.78° C | 57% | 1014.1 hPa | 0 mm | - | 1 W/m² | - |
| 1778032612 | 12.78° C | 55% | 1013.3 hPa | 0 mm | - | 1 W/m² | - |
| 1778032309 | 13.33° C | 51% | 1012.9 hPa | 0 mm | - | 1 W/m² | - |
| 1778032007 | 13.89° C | 50% | 1012.5 hPa | 0 mm | - | 2 W/m² | - |
| 1778031702 | 13.89° C | 49% | 1012.6 hPa | 0 mm | - | 4 W/m² | - |
| 1778031400 | 15° C | 48% | 1012.3 hPa | 0 mm | - | 4 W/m² | - |
| 1778031097 | 16.11° C | 41% | 1012.1 hPa | 0 mm | - | 4 W/m² | - |
| 1778030793 | 16.11° C | 41% | 1012.1 hPa | 0 mm | - | 5 W/m² | - |
| 1778030490 | 16.11° C | 41% | 1012 hPa | 0 mm | - | 8 W/m² | - |
| 1778030188 | 16.11° C | 40% | 1012 hPa | 0 mm | - | 12 W/m² | - |
| 1778029883 | 16.11° C | 40% | 1011.9 hPa | 0 mm | - | 16 W/m² | - |
| 1778029583 | 16.67° C | 40% | 1011.9 hPa | 0 mm | - | 28 W/m² | - |
* Rain latest hour (hover to see other rain measurements)
** Current wind speed in m/s (hover to see current wind gust speed)